Terminal Aerodrome Forecast
Issued by NWS New Orleans/Baton Rouge, LA

Home | Current Version | Previous Version | Text Only | Print | Product List | Glossary On
Versions: 1 2 3 4 5 6 7 8 9 10 11 12 13 14 15 16 17 18 19 20 21 22 23 24 25 26 27 28 29 30 31 32
000
FTUS44 KLIX 251500 AAA
TAFNEW
TAF AMD
KNEW 251500Z 2515/2612 36023G34KT 4SM -SHRA BR SCT008 OVC015
      TEMPO 2515/2516 2SM SHRA
     FM251600 04013KT 4SM -SHRA SCT007 BKN016 OVC030
     FM251800 16007KT P6SM VCSH SCT030 BKN100
     FM260200 15006KT 4SM -SHRA BKN015
     FM260600 15009KT P6SM VCTS OVC010CB=

USA.gov is the U.S. government's official web portal to all federal, state and local government web resources and services.